sensor_id;sensor_type;location;lat;lon;timestamp;temperature;humidity
20831;DHT22;10576;53.556;9.868;2023-04-25T00:00:19;8.10;99.90
20831;DHT22;10576;53.556;9.868;2023-04-25T00:02:45;7.80;99.90
20831;DHT22;10576;53.556;9.868;2023-04-25T00:05:12;8.10;99.90
20831;DHT22;10576;53.556;9.868;2023-04-25T00:07:40;7.80;99.90
20831;DHT22;10576;53.556;9.868;2023-04-25T00:10:08;7.60;99.90
20831;DHT22;10576;53.556;9.868;2023-04-25T00:12:34;7.90;99.90
20831;DHT22;10576;53.556;9.868;2023-04-25T00:15:01;7.70;99.90
20831;DHT22;10576;53.556;9.868;2023-04-25T00:17:27;7.80;99.90
20831;DHT22;10576;53.556;9.868;2023-04-25T00:19:52;7.90;99.90
20831;DHT22;10576;53.556;9.868;2023-04-25T00:22:18;7.90;99.90
20831;DHT22;10576;53.556;9.868;2023-04-25T00:24:44;7.50;99.90
20831;DHT22;10576;53.556;9.868;2023-04-25T00:27:10;7.60;99.90
20831;DHT22;10576;53.556;9.868;2023-04-25T00:29:36;7.70;99.90
20831;DHT22;10576;53.556;9.868;2023-04-25T00:32:02;7.80;99.90
20831;DHT22;10576;53.556;9.868;2023-04-25T00:34:27;7.50;99.90
20831;DHT22;10576;53.556;9.868;2023-04-25T00:36:53;7.70;99.90
20831;DHT22;10576;53.556;9.868;2023-04-25T00:39:19;7.40;99.90
20831;DHT22;10576;53.556;9.868;2023-04-25T00:41:45;7.80;99.90
20831;DHT22;10576;53.556;9.868;2023-04-25T00:44:11;7.50;99.90
20831;DHT22;10576;53.556;9.868;2023-04-25T00:46:38;7.60;99.90
20831;DHT22;10576;53.556;9.868;2023-04-25T00:49:04;7.70;99.90
20831;DHT22;10576;53.556;9.868;2023-04-25T00:51:30;7.70;99.90
20831;DHT22;10576;53.556;9.868;2023-04-25T00:53:58;7.60;99.90
20831;DHT22;10576;53.556;9.868;2023-04-25T00:56:23;7.30;99.90
20831;DHT22;10576;53.556;9.868;2023-04-25T00:58:53;7.60;99.90
20831;DHT22;10576;53.556;9.868;2023-04-25T01:01:19;7.70;99.90
20831;DHT22;10576;53.556;9.868;2023-04-25T01:03:45;7.40;99.90
20831;DHT22;10576;53.556;9.868;2023-04-25T01:06:12;7.40;99.90
20831;DHT22;10576;53.556;9.868;2023-04-25T01:08:39;7.50;99.90
20831;DHT22;10576;53.556;9.868;2023-04-25T01:11:05;7.20;99.90
20831;DHT22;10576;53.556;9.868;2023-04-25T01:13:31;7.20;99.90
20831;DHT22;10576;53.556;9.868;2023-04-25T01:15:59;7.20;99.90
20831;DHT22;10576;53.556;9.868;2023-04-25T01:18:24;7.30;99.90
20831;DHT22;10576;53.556;9.868;2023-04-25T01:20:52;7.20;99.90
20831;DHT22;10576;53.556;9.868;2023-04-25T01:23:19;7.20;99.90
20831;DHT22;10576;53.556;9.868;2023-04-25T01:25:45;7.10;99.90
20831;DHT22;10576;53.556;9.868;2023-04-25T01:28:12;7.60;99.90
20831;DHT22;10576;53.556;9.868;2023-04-25T01:30:38;7.30;99.90
20831;DHT22;10576;53.556;9.868;2023-04-25T01:33:04;6.90;99.90
20831;DHT22;10576;53.556;9.868;2023-04-25T01:35:31;7.30;99.90
20831;DHT22;10576;53.556;9.868;2023-04-25T01:37:57;7.00;99.90
20831;DHT22;10576;53.556;9.868;2023-04-25T01:40:24;7.10;99.90
20831;DHT22;10576;53.556;9.868;2023-04-25T01:42:50;7.00;99.90
20831;DHT22;10576;53.556;9.868;2023-04-25T01:45:17;6.80;99.90
20831;DHT22;10576;53.556;9.868;2023-04-25T01:47:43;7.10;99.90
20831;DHT22;10576;53.556;9.868;2023-04-25T01:50:12;7.10;99.90
20831;DHT22;10576;53.556;9.868;2023-04-25T01:52:38;7.10;99.90
20831;DHT22;10576;53.556;9.868;2023-04-25T01:55:05;7.10;99.90
20831;DHT22;10576;53.556;9.868;2023-04-25T01:57:31;7.00;99.90
20831;DHT22;10576;53.556;9.868;2023-04-25T02:00:02;7.00;99.90
20831;DHT22;10576;53.556;9.868;2023-04-25T02:02:28;7.10;99.90
20831;DHT22;10576;53.556;9.868;2023-04-25T02:04:54;6.90;99.90
20831;DHT22;10576;53.556;9.868;2023-04-25T02:07:20;6.70;99.90
20831;DHT22;10576;53.556;9.868;2023-04-25T02:09:45;6.90;99.90
20831;DHT22;10576;53.556;9.868;2023-04-25T02:12:11;7.00;99.90
20831;DHT22;10576;53.556;9.868;2023-04-25T02:14:37;6.60;99.90
20831;DHT22;10576;53.556;9.868;2023-04-25T02:17:03;6.80;99.90
20831;DHT22;10576;53.556;9.868;2023-04-25T02:19:28;6.80;99.90
20831;DHT22;10576;53.556;9.868;2023-04-25T02:21:54;6.70;99.90
20831;DHT22;10576;53.556;9.868;2023-04-25T02:24:20;6.80;99.90
20831;DHT22;10576;53.556;9.868;2023-04-25T02:26:46;6.80;99.90
20831;DHT22;10576;53.556;9.868;2023-04-25T02:29:12;6.80;99.90
20831;DHT22;10576;53.556;9.868;2023-04-25T02:31:38;6.80;99.90
20831;DHT22;10576;53.556;9.868;2023-04-25T02:34:04;6.70;99.90
20831;DHT22;10576;53.556;9.868;2023-04-25T02:36:30;6.40;99.90
20831;DHT22;10576;53.556;9.868;2023-04-25T02:38:59;6.80;99.90
20831;DHT22;10576;53.556;9.868;2023-04-25T02:41:25;6.80;99.90
20831;DHT22;10576;53.556;9.868;2023-04-25T02:43:51;6.50;99.90
20831;DHT22;10576;53.556;9.868;2023-04-25T02:46:17;6.50;99.90
20831;DHT22;10576;53.556;9.868;2023-04-25T02:48:42;6.80;99.90
20831;DHT22;10576;53.556;9.868;2023-04-25T02:51:08;6.80;99.90
20831;DHT22;10576;53.556;9.868;2023-04-25T02:53:34;6.70;99.90
20831;DHT22;10576;53.556;9.868;2023-04-25T02:56:00;6.30;99.90
20831;DHT22;10576;53.556;9.868;2023-04-25T02:58:26;6.30;99.90
20831;DHT22;10576;53.556;9.868;2023-04-25T03:00:51;6.50;99.90
20831;DHT22;10576;53.556;9.868;2023-04-25T03:03:17;6.70;99.90
20831;DHT22;10576;53.556;9.868;2023-04-25T03:05:48;6.50;99.90
20831;DHT22;10576;53.556;9.868;2023-04-25T03:08:13;6.40;99.90
20831;DHT22;10576;53.556;9.868;2023-04-25T03:10:39;6.20;99.90
20831;DHT22;10576;53.556;9.868;2023-04-25T03:13:05;6.50;99.90
20831;DHT22;10576;53.556;9.868;2023-04-25T03:15:30;6.00;99.90
20831;DHT22;10576;53.556;9.868;2023-04-25T03:17:56;6.00;99.90
20831;DHT22;10576;53.556;9.868;2023-04-25T03:20:22;6.20;99.90
20831;DHT22;10576;53.556;9.868;2023-04-25T03:22:48;6.30;99.90
20831;DHT22;10576;53.556;9.868;2023-04-25T03:25:13;5.90;99.90
20831;DHT22;10576;53.556;9.868;2023-04-25T03:27:39;6.10;99.90
20831;DHT22;10576;53.556;9.868;2023-04-25T03:30:05;6.20;99.90
20831;DHT22;10576;53.556;9.868;2023-04-25T03:32:31;5.90;99.90
20831;DHT22;10576;53.556;9.868;2023-04-25T03:34:57;5.80;99.90
20831;DHT22;10576;53.556;9.868;2023-04-25T03:37:23;6.00;99.90
20831;DHT22;10576;53.556;9.868;2023-04-25T03:39:48;5.90;99.90
20831;DHT22;10576;53.556;9.868;2023-04-25T03:42:14;6.00;99.90
20831;DHT22;10576;53.556;9.868;2023-04-25T03:44:40;5.70;99.90
20831;DHT22;10576;53.556;9.868;2023-04-25T03:47:05;6.00;99.90
20831;DHT22;10576;53.556;9.868;2023-04-25T03:49:33;5.90;99.90
20831;DHT22;10576;53.556;9.868;2023-04-25T03:51:59;5.70;99.90
20831;DHT22;10576;53.556;9.868;2023-04-25T03:54:25;6.00;99.90
20831;DHT22;10576;53.556;9.868;2023-04-25T03:56:51;5.90;99.90
20831;DHT22;10576;53.556;9.868;2023-04-25T03:59:17;5.80;99.90
20831;DHT22;10576;53.556;9.868;2023-04-25T04:01:42;6.00;99.90
20831;DHT22;10576;53.556;9.868;2023-04-25T04:04:08;5.90;99.90
20831;DHT22;10576;53.556;9.868;2023-04-25T04:06:33;5.80;99.90
20831;DHT22;10576;53.556;9.868;2023-04-25T04:08:59;5.90;99.90
20831;DHT22;10576;53.556;9.868;2023-04-25T04:11:25;5.90;99.90
20831;DHT22;10576;53.556;9.868;2023-04-25T04:13:51;5.90;99.90
20831;DHT22;10576;53.556;9.868;2023-04-25T04:16:17;5.90;99.90
20831;DHT22;10576;53.556;9.868;2023-04-25T04:21:08;5.80;99.90
20831;DHT22;10576;53.556;9.868;2023-04-25T04:23:34;5.80;99.90
20831;DHT22;10576;53.556;9.868;2023-04-25T04:26:00;5.60;99.90
20831;DHT22;10576;53.556;9.868;2023-04-25T04:28:26;5.40;99.90
20831;DHT22;10576;53.556;9.868;2023-04-25T04:30:52;5.50;99.90
20831;DHT22;10576;53.556;9.868;2023-04-25T04:33:17;5.60;99.90
20831;DHT22;10576;53.556;9.868;2023-04-25T04:35:46;5.70;99.90
20831;DHT22;10576;53.556;9.868;2023-04-25T04:38:13;5.80;99.90
20831;DHT22;10576;53.556;9.868;2023-04-25T04:40:41;5.60;99.90
20831;DHT22;10576;53.556;9.868;2023-04-25T04:43:08;5.70;99.90
20831;DHT22;10576;53.556;9.868;2023-04-25T04:45:36;5.80;99.90
20831;DHT22;10576;53.556;9.868;2023-04-25T04:48:07;5.60;99.90
20831;DHT22;10576;53.556;9.868;2023-04-25T04:50:33;5.90;99.90
20831;DHT22;10576;53.556;9.868;2023-04-25T04:53:01;5.70;99.90
20831;DHT22;10576;53.556;9.868;2023-04-25T04:55:27;6.20;99.90
20831;DHT22;10576;53.556;9.868;2023-04-25T04:57:52;5.80;99.90
20831;DHT22;10576;53.556;9.868;2023-04-25T05:00:18;5.80;99.90
20831;DHT22;10576;53.556;9.868;2023-04-25T05:02:44;5.80;99.90
20831;DHT22;10576;53.556;9.868;2023-04-25T05:05:09;5.80;99.90
20831;DHT22;10576;53.556;9.868;2023-04-25T05:07:35;6.00;99.90
20831;DHT22;10576;53.556;9.868;2023-04-25T05:10:01;5.90;99.90
20831;DHT22;10576;53.556;9.868;2023-04-25T05:12:27;6.20;99.90
20831;DHT22;10576;53.556;9.868;2023-04-25T05:14:52;6.00;99.90
20831;DHT22;10576;53.556;9.868;2023-04-25T05:17:18;6.30;99.90
20831;DHT22;10576;53.556;9.868;2023-04-25T05:19:43;5.90;99.90
20831;DHT22;10576;53.556;9.868;2023-04-25T05:22:09;5.80;99.90
20831;DHT22;10576;53.556;9.868;2023-04-25T05:24:35;5.80;99.90
20831;DHT22;10576;53.556;9.868;2023-04-25T05:27:00;5.70;99.90
20831;DHT22;10576;53.556;9.868;2023-04-25T05:29:26;5.70;99.90
20831;DHT22;10576;53.556;9.868;2023-04-25T05:31:51;5.90;99.90
20831;DHT22;10576;53.556;9.868;2023-04-25T05:34:18;6.10;99.90
20831;DHT22;10576;53.556;9.868;2023-04-25T05:36:44;5.90;99.90
20831;DHT22;10576;53.556;9.868;2023-04-25T05:39:09;6.00;99.90
20831;DHT22;10576;53.556;9.868;2023-04-25T05:41:35;6.00;99.90
20831;DHT22;10576;53.556;9.868;2023-04-25T05:44:02;6.20;99.90
20831;DHT22;10576;53.556;9.868;2023-04-25T05:46:28;6.30;99.90
20831;DHT22;10576;53.556;9.868;2023-04-25T05:48:53;6.30;99.90
20831;DHT22;10576;53.556;9.868;2023-04-25T05:51:19;6.40;99.90
20831;DHT22;10576;53.556;9.868;2023-04-25T05:53:44;6.20;99.90
20831;DHT22;10576;53.556;9.868;2023-04-25T05:56:10;6.50;99.90
20831;DHT22;10576;53.556;9.868;2023-04-25T05:58:36;6.60;99.90
20831;DHT22;10576;53.556;9.868;2023-04-25T06:01:02;6.50;99.90
20831;DHT22;10576;53.556;9.868;2023-04-25T06:03:28;6.50;99.90
20831;DHT22;10576;53.556;9.868;2023-04-25T06:05:53;6.60;99.90
20831;DHT22;10576;53.556;9.868;2023-04-25T06:08:19;6.80;99.90
20831;DHT22;10576;53.556;9.868;2023-04-25T06:10:45;6.90;99.90
20831;DHT22;10576;53.556;9.868;2023-04-25T06:13:10;6.90;99.90
20831;DHT22;10576;53.556;9.868;2023-04-25T06:15:36;6.60;99.90
20831;DHT22;10576;53.556;9.868;2023-04-25T06:18:02;6.70;99.90
20831;DHT22;10576;53.556;9.868;2023-04-25T06:20:27;6.50;99.90
20831;DHT22;10576;53.556;9.868;2023-04-25T06:22:53;6.50;99.90
20831;DHT22;10576;53.556;9.868;2023-04-25T06:25:19;6.60;99.90
20831;DHT22;10576;53.556;9.868;2023-04-25T06:27:45;6.70;99.90
20831;DHT22;10576;53.556;9.868;2023-04-25T06:30:11;6.30;99.90
20831;DHT22;10576;53.556;9.868;2023-04-25T06:32:38;6.20;99.90
20831;DHT22;10576;53.556;9.868;2023-04-25T06:35:04;6.50;99.90
20831;DHT22;10576;53.556;9.868;2023-04-25T06:37:29;6.50;99.90
20831;DHT22;10576;53.556;9.868;2023-04-25T06:39:55;6.60;99.90
20831;DHT22;10576;53.556;9.868;2023-04-25T06:42:21;6.90;99.90
20831;DHT22;10576;53.556;9.868;2023-04-25T06:44:47;6.80;99.90
20831;DHT22;10576;53.556;9.868;2023-04-25T06:47:12;6.70;99.90
20831;DHT22;10576;53.556;9.868;2023-04-25T06:49:38;7.10;99.90
20831;DHT22;10576;53.556;9.868;2023-04-25T06:52:03;7.30;99.90
20831;DHT22;10576;53.556;9.868;2023-04-25T06:54:29;7.10;99.90
20831;DHT22;10576;53.556;9.868;2023-04-25T06:56:55;7.00;99.90
20831;DHT22;10576;53.556;9.868;2023-04-25T06:59:21;7.10;99.90
20831;DHT22;10576;53.556;9.868;2023-04-25T07:01:47;7.40;99.90
20831;DHT22;10576;53.556;9.868;2023-04-25T07:04:13;7.40;99.90
20831;DHT22;10576;53.556;9.868;2023-04-25T07:06:38;7.30;99.90
20831;DHT22;10576;53.556;9.868;2023-04-25T07:09:08;7.50;99.90
20831;DHT22;10576;53.556;9.868;2023-04-25T07:11:35;7.40;99.90
20831;DHT22;10576;53.556;9.868;2023-04-25T07:14:01;7.50;99.90
20831;DHT22;10576;53.556;9.868;2023-04-25T07:16:27;7.70;99.90
20831;DHT22;10576;53.556;9.868;2023-04-25T07:18:53;7.70;99.90
20831;DHT22;10576;53.556;9.868;2023-04-25T07:21:18;8.00;99.90
20831;DHT22;10576;53.556;9.868;2023-04-25T07:23:44;7.70;99.90
20831;DHT22;10576;53.556;9.868;2023-04-25T07:26:10;7.90;99.90
20831;DHT22;10576;53.556;9.868;2023-04-25T07:28:35;7.50;99.90
20831;DHT22;10576;53.556;9.868;2023-04-25T07:31:13;7.70;99.90
20831;DHT22;10576;53.556;9.868;2023-04-25T07:33:44;7.80;99.90
20831;DHT22;10576;53.556;9.868;2023-04-25T07:36:13;7.90;99.90
20831;DHT22;10576;53.556;9.868;2023-04-25T07:38:40;8.00;99.90
20831;DHT22;10576;53.556;9.868;2023-04-25T07:41:06;7.80;99.90
20831;DHT22;10576;53.556;9.868;2023-04-25T07:43:31;8.10;99.90
20831;DHT22;10576;53.556;9.868;2023-04-25T07:45:57;8.00;99.90
20831;DHT22;10576;53.556;9.868;2023-04-25T07:48:23;8.20;99.90
20831;DHT22;10576;53.556;9.868;2023-04-25T07:50:49;8.30;99.90
20831;DHT22;10576;53.556;9.868;2023-04-25T07:53:14;8.30;99.90
20831;DHT22;10576;53.556;9.868;2023-04-25T08:00:33;9.00;99.90
20831;DHT22;10576;53.556;9.868;2023-04-25T08:02:58;9.50;99.90
20831;DHT22;10576;53.556;9.868;2023-04-25T08:05:24;10.20;99.90
20831;DHT22;10576;53.556;9.868;2023-04-25T08:07:49;10.60;99.90
20831;DHT22;10576;53.556;9.868;2023-04-25T08:10:17;10.60;99.90
20831;DHT22;10576;53.556;9.868;2023-04-25T08:12:42;10.60;99.90
20831;DHT22;10576;53.556;9.868;2023-04-25T08:15:08;10.40;99.90
20831;DHT22;10576;53.556;9.868;2023-04-25T08:17:34;10.30;99.90
20831;DHT22;10576;53.556;9.868;2023-04-25T08:20:00;10.00;99.90
20831;DHT22;10576;53.556;9.868;2023-04-25T08:22:25;9.80;99.90
20831;DHT22;10576;53.556;9.868;2023-04-25T08:24:51;9.60;99.90
20831;DHT22;10576;53.556;9.868;2023-04-25T08:27:18;9.50;99.90
20831;DHT22;10576;53.556;9.868;2023-04-25T08:29:44;10.20;99.90
20831;DHT22;10576;53.556;9.868;2023-04-25T08:32:10;10.30;99.90
20831;DHT22;10576;53.556;9.868;2023-04-25T08:34:35;11.00;99.90
20831;DHT22;10576;53.556;9.868;2023-04-25T08:37:02;11.10;99.90
20831;DHT22;10576;53.556;9.868;2023-04-25T08:39:29;11.20;99.90
20831;DHT22;10576;53.556;9.868;2023-04-25T08:41:56;10.80;99.90
20831;DHT22;10576;53.556;9.868;2023-04-25T08:44:22;10.30;99.90
20831;DHT22;10576;53.556;9.868;2023-04-25T08:46:49;10.30;99.90
20831;DHT22;10576;53.556;9.868;2023-04-25T08:49:17;10.10;99.90
20831;DHT22;10576;53.556;9.868;2023-04-25T08:51:47;10.00;99.90
20831;DHT22;10576;53.556;9.868;2023-04-25T08:54:13;9.30;99.90
20831;DHT22;10576;53.556;9.868;2023-04-25T08:56:45;9.00;99.90
20831;DHT22;10576;53.556;9.868;2023-04-25T08:59:12;9.10;99.90
20831;DHT22;10576;53.556;9.868;2023-04-25T09:01:38;9.00;99.90
20831;DHT22;10576;53.556;9.868;2023-04-25T09:04:05;9.10;99.90
20831;DHT22;10576;53.556;9.868;2023-04-25T09:06:31;8.90;99.90
20831;DHT22;10576;53.556;9.868;2023-04-25T09:09:07;8.50;99.90
20831;DHT22;10576;53.556;9.868;2023-04-25T09:11:35;8.50;99.90
20831;DHT22;10576;53.556;9.868;2023-04-25T09:14:30;8.20;99.90
20831;DHT22;10576;53.556;9.868;2023-04-25T09:19:39;8.60;99.90
20831;DHT22;10576;53.556;9.868;2023-04-25T09:22:06;8.60;99.90
20831;DHT22;10576;53.556;9.868;2023-04-25T09:27:08;9.20;99.90
20831;DHT22;10576;53.556;9.868;2023-04-25T09:29:41;10.30;99.90
20831;DHT22;10576;53.556;9.868;2023-04-25T09:32:20;11.10;99.90
20831;DHT22;10576;53.556;9.868;2023-04-25T09:34:51;13.70;99.90
20831;DHT22;10576;53.556;9.868;2023-04-25T09:37:22;10.70;99.90
20831;DHT22;10576;53.556;9.868;2023-04-25T09:39:51;10.00;99.90
20831;DHT22;10576;53.556;9.868;2023-04-25T09:42:17;9.60;99.90
20831;DHT22;10576;53.556;9.868;2023-04-25T09:44:44;9.20;99.90
20831;DHT22;10576;53.556;9.868;2023-04-25T09:47:11;9.40;99.90
20831;DHT22;10576;53.556;9.868;2023-04-25T09:49:40;9.30;99.90
20831;DHT22;10576;53.556;9.868;2023-04-25T09:52:06;9.20;99.90
20831;DHT22;10576;53.556;9.868;2023-04-25T09:54:34;9.50;99.90
20831;DHT22;10576;53.556;9.868;2023-04-25T09:57:12;9.40;99.90
20831;DHT22;10576;53.556;9.868;2023-04-25T09:59:42;9.20;99.90
20831;DHT22;10576;53.556;9.868;2023-04-25T10:02:08;9.70;99.90
20831;DHT22;10576;53.556;9.868;2023-04-25T10:04:35;10.70;99.90
20831;DHT22;10576;53.556;9.868;2023-04-25T10:07:06;10.80;99.90
20831;DHT22;10576;53.556;9.868;2023-04-25T10:09:32;11.00;99.90
20831;DHT22;10576;53.556;9.868;2023-04-25T10:12:02;11.30;99.90
20831;DHT22;10576;53.556;9.868;2023-04-25T10:14:30;10.70;99.90
20831;DHT22;10576;53.556;9.868;2023-04-25T10:16:58;10.50;99.90
20831;DHT22;10576;53.556;9.868;2023-04-25T10:19:25;10.40;99.90
20831;DHT22;10576;53.556;9.868;2023-04-25T10:21:55;10.20;99.90
20831;DHT22;10576;53.556;9.868;2023-04-25T10:24:24;11.30;99.90
20831;DHT22;10576;53.556;9.868;2023-04-25T10:26:51;11.40;99.90
20831;DHT22;10576;53.556;9.868;2023-04-25T10:29:26;12.00;99.90
20831;DHT22;10576;53.556;9.868;2023-04-25T10:31:52;11.90;99.90
20831;DHT22;10576;53.556;9.868;2023-04-25T10:34:37;11.20;99.90
20831;DHT22;10576;53.556;9.868;2023-04-25T10:37:04;11.10;99.90
20831;DHT22;10576;53.556;9.868;2023-04-25T10:39:30;10.80;99.90
20831;DHT22;10576;53.556;9.868;2023-04-25T10:41:57;11.10;99.90
20831;DHT22;10576;53.556;9.868;2023-04-25T10:44:27;11.60;99.90
20831;DHT22;10576;53.556;9.868;2023-04-25T10:46:58;11.70;99.90
20831;DHT22;10576;53.556;9.868;2023-04-25T10:49:38;11.80;99.90
20831;DHT22;10576;53.556;9.868;2023-04-25T10:52:19;11.60;99.90
20831;DHT22;10576;53.556;9.868;2023-04-25T10:54:54;11.00;99.90
20831;DHT22;10576;53.556;9.868;2023-04-25T11:02:30;10.50;99.90
20831;DHT22;10576;53.556;9.868;2023-04-25T11:04:56;10.30;99.90
20831;DHT22;10576;53.556;9.868;2023-04-25T11:07:38;10.40;99.90
20831;DHT22;10576;53.556;9.868;2023-04-25T11:10:05;10.60;99.90
20831;DHT22;10576;53.556;9.868;2023-04-25T11:12:32;11.00;99.90
20831;DHT22;10576;53.556;9.868;2023-04-25T11:15:01;12.20;99.90
20831;DHT22;10576;53.556;9.868;2023-04-25T11:17:28;12.40;99.90
20831;DHT22;10576;53.556;9.868;2023-04-25T11:19:54;12.60;99.90
20831;DHT22;10576;53.556;9.868;2023-04-25T11:22:21;12.60;99.90
20831;DHT22;10576;53.556;9.868;2023-04-25T11:24:47;12.70;99.90
20831;DHT22;10576;53.556;9.868;2023-04-25T11:27:13;13.00;99.90
20831;DHT22;10576;53.556;9.868;2023-04-25T11:29:38;12.60;99.90
20831;DHT22;10576;53.556;9.868;2023-04-25T11:32:04;11.70;99.90
20831;DHT22;10576;53.556;9.868;2023-04-25T11:34:31;9.60;99.90
20831;DHT22;10576;53.556;9.868;2023-04-25T11:37:02;9.50;99.90
20831;DHT22;10576;53.556;9.868;2023-04-25T11:39:31;9.00;99.90
20831;DHT22;10576;53.556;9.868;2023-04-25T11:41:57;9.40;99.90
20831;DHT22;10576;53.556;9.868;2023-04-25T11:44:23;9.10;99.90
20831;DHT22;10576;53.556;9.868;2023-04-25T11:46:49;8.80;99.90
20831;DHT22;10576;53.556;9.868;2023-04-25T11:49:15;9.10;99.90
20831;DHT22;10576;53.556;9.868;2023-04-25T11:51:47;9.20;99.90
20831;DHT22;10576;53.556;9.868;2023-04-25T11:54:14;9.50;99.90
20831;DHT22;10576;53.556;9.868;2023-04-25T11:56:46;9.50;99.90
20831;DHT22;10576;53.556;9.868;2023-04-25T11:59:12;10.10;99.90
20831;DHT22;10576;53.556;9.868;2023-04-25T12:01:40;10.60;99.90
20831;DHT22;10576;53.556;9.868;2023-04-25T12:06:39;10.10;99.90
20831;DHT22;10576;53.556;9.868;2023-04-25T12:09:12;11.50;99.90
20831;DHT22;10576;53.556;9.868;2023-04-25T12:11:45;11.80;99.90
20831;DHT22;10576;53.556;9.868;2023-04-25T12:16:45;12.10;99.90
20831;DHT22;10576;53.556;9.868;2023-04-25T12:19:14;12.10;99.90
20831;DHT22;10576;53.556;9.868;2023-04-25T12:21:40;12.10;99.90
20831;DHT22;10576;53.556;9.868;2023-04-25T12:24:23;11.60;99.90
20831;DHT22;10576;53.556;9.868;2023-04-25T12:27:00;11.60;99.90
20831;DHT22;10576;53.556;9.868;2023-04-25T12:29:28;11.40;99.90
20831;DHT22;10576;53.556;9.868;2023-04-25T12:31:54;10.90;99.90
20831;DHT22;10576;53.556;9.868;2023-04-25T12:34:21;11.10;99.90
20831;DHT22;10576;53.556;9.868;2023-04-25T12:36:47;11.00;99.90
20831;DHT22;10576;53.556;9.868;2023-04-25T12:41:47;11.80;99.90
20831;DHT22;10576;53.556;9.868;2023-04-25T12:44:13;12.30;99.90
20831;DHT22;10576;53.556;9.868;2023-04-25T12:46:39;12.20;99.90
20831;DHT22;10576;53.556;9.868;2023-04-25T12:49:06;12.00;99.90
20831;DHT22;10576;53.556;9.868;2023-04-25T12:51:34;11.40;99.90
20831;DHT22;10576;53.556;9.868;2023-04-25T12:54:00;10.80;99.90
20831;DHT22;10576;53.556;9.868;2023-04-25T12:56:29;10.50;99.90
20831;DHT22;10576;53.556;9.868;2023-04-25T12:58:55;10.30;99.90
20831;DHT22;10576;53.556;9.868;2023-04-25T13:01:22;10.40;99.90
20831;DHT22;10576;53.556;9.868;2023-04-25T13:03:48;10.70;99.90
20831;DHT22;10576;53.556;9.868;2023-04-25T13:06:14;11.30;99.90
20831;DHT22;10576;53.556;9.868;2023-04-25T13:08:41;11.50;99.90
20831;DHT22;10576;53.556;9.868;2023-04-25T13:11:07;11.20;99.90
20831;DHT22;10576;53.556;9.868;2023-04-25T13:13:33;10.90;99.90
20831;DHT22;10576;53.556;9.868;2023-04-25T13:16:01;9.10;99.90
20831;DHT22;10576;53.556;9.868;2023-04-25T13:18:27;8.30;99.90
20831;DHT22;10576;53.556;9.868;2023-04-25T13:20:53;8.20;99.90
20831;DHT22;10576;53.556;9.868;2023-04-25T13:23:19;8.10;99.90
20831;DHT22;10576;53.556;9.868;2023-04-25T13:25:46;8.10;99.90
20831;DHT22;10576;53.556;9.868;2023-04-25T13:28:12;8.30;99.90
20831;DHT22;10576;53.556;9.868;2023-04-25T13:30:38;8.80;99.90
20831;DHT22;10576;53.556;9.868;2023-04-25T13:33:04;8.80;99.90
20831;DHT22;10576;53.556;9.868;2023-04-25T13:35:32;8.70;99.90
20831;DHT22;10576;53.556;9.868;2023-04-25T13:37:59;9.00;99.90
20831;DHT22;10576;53.556;9.868;2023-04-25T13:40:25;10.70;99.90
20831;DHT22;10576;53.556;9.868;2023-04-25T13:42:52;9.30;99.90
20831;DHT22;10576;53.556;9.868;2023-04-25T13:45:18;9.20;99.90
20831;DHT22;10576;53.556;9.868;2023-04-25T13:47:43;9.20;99.90
20831;DHT22;10576;53.556;9.868;2023-04-25T13:50:09;8.60;99.90
20831;DHT22;10576;53.556;9.868;2023-04-25T13:52:35;7.80;99.90
20831;DHT22;10576;53.556;9.868;2023-04-25T13:55:01;6.90;99.90
20831;DHT22;10576;53.556;9.868;2023-04-25T13:57:30;7.00;99.90
20831;DHT22;10576;53.556;9.868;2023-04-25T13:59:56;7.10;99.90
20831;DHT22;10576;53.556;9.868;2023-04-25T14:02:21;7.10;99.90
20831;DHT22;10576;53.556;9.868;2023-04-25T14:04:47;7.30;99.90
20831;DHT22;10576;53.556;9.868;2023-04-25T14:07:14;7.30;99.90
20831;DHT22;10576;53.556;9.868;2023-04-25T14:09:41;7.90;99.90
20831;DHT22;10576;53.556;9.868;2023-04-25T14:12:07;8.20;99.90
20831;DHT22;10576;53.556;9.868;2023-04-25T14:14:33;8.40;99.90
20831;DHT22;10576;53.556;9.868;2023-04-25T14:16:59;8.50;99.90
20831;DHT22;10576;53.556;9.868;2023-04-25T14:19:25;8.50;99.90
20831;DHT22;10576;53.556;9.868;2023-04-25T14:21:51;8.50;99.90
20831;DHT22;10576;53.556;9.868;2023-04-25T14:24:17;8.60;99.90
20831;DHT22;10576;53.556;9.868;2023-04-25T14:26:43;8.60;99.90
20831;DHT22;10576;53.556;9.868;2023-04-25T14:29:09;8.60;99.90
20831;DHT22;10576;53.556;9.868;2023-04-25T14:31:37;8.70;99.90
20831;DHT22;10576;53.556;9.868;2023-04-25T14:34:04;8.80;99.90
20831;DHT22;10576;53.556;9.868;2023-04-25T14:36:29;9.00;99.90
20831;DHT22;10576;53.556;9.868;2023-04-25T14:38:56;9.20;99.90
20831;DHT22;10576;53.556;9.868;2023-04-25T14:41:22;9.10;99.90
20831;DHT22;10576;53.556;9.868;2023-04-25T14:43:48;9.10;99.90
20831;DHT22;10576;53.556;9.868;2023-04-25T14:46:14;9.20;99.90
20831;DHT22;10576;53.556;9.868;2023-04-25T14:48:40;9.20;99.90
20831;DHT22;10576;53.556;9.868;2023-04-25T14:51:05;9.20;99.90
20831;DHT22;10576;53.556;9.868;2023-04-25T14:53:31;9.20;99.90
20831;DHT22;10576;53.556;9.868;2023-04-25T14:55:57;9.30;99.90
20831;DHT22;10576;53.556;9.868;2023-04-25T14:58:23;9.20;99.90
20831;DHT22;10576;53.556;9.868;2023-04-25T15:00:49;9.30;99.90
20831;DHT22;10576;53.556;9.868;2023-04-25T15:03:16;9.30;99.90
20831;DHT22;10576;53.556;9.868;2023-04-25T15:05:43;9.30;99.90
20831;DHT22;10576;53.556;9.868;2023-04-25T15:08:08;8.50;99.90
20831;DHT22;10576;53.556;9.868;2023-04-25T15:10:34;8.30;99.90
20831;DHT22;10576;53.556;9.868;2023-04-25T15:13:00;8.40;99.90
20831;DHT22;10576;53.556;9.868;2023-04-25T15:15:26;8.40;99.90
20831;DHT22;10576;53.556;9.868;2023-04-25T15:17:52;8.20;99.90
20831;DHT22;10576;53.556;9.868;2023-04-25T15:20:20;8.20;99.90
20831;DHT22;10576;53.556;9.868;2023-04-25T15:22:46;8.50;99.90
20831;DHT22;10576;53.556;9.868;2023-04-25T15:25:14;8.60;99.90
20831;DHT22;10576;53.556;9.868;2023-04-25T15:27:43;8.60;99.90
20831;DHT22;10576;53.556;9.868;2023-04-25T15:30:12;8.60;99.90
20831;DHT22;10576;53.556;9.868;2023-04-25T15:32:39;8.60;99.90
20831;DHT22;10576;53.556;9.868;2023-04-25T15:35:06;8.50;99.90
20831;DHT22;10576;53.556;9.868;2023-04-25T15:37:32;8.40;99.90
20831;DHT22;10576;53.556;9.868;2023-04-25T15:40:04;8.50;99.90
20831;DHT22;10576;53.556;9.868;2023-04-25T15:42:35;8.30;99.90
20831;DHT22;10576;53.556;9.868;2023-04-25T15:45:03;8.50;99.90
20831;DHT22;10576;53.556;9.868;2023-04-25T15:47:28;8.50;99.90
20831;DHT22;10576;53.556;9.868;2023-04-25T15:49:54;8.40;99.90
20831;DHT22;10576;53.556;9.868;2023-04-25T15:52:20;8.50;99.90
20831;DHT22;10576;53.556;9.868;2023-04-25T15:54:46;8.50;99.90
20831;DHT22;10576;53.556;9.868;2023-04-25T15:57:12;8.40;99.90
20831;DHT22;10576;53.556;9.868;2023-04-25T15:59:38;8.50;99.90
20831;DHT22;10576;53.556;9.868;2023-04-25T16:02:03;8.40;99.90
20831;DHT22;10576;53.556;9.868;2023-04-25T16:04:29;8.30;99.90